Time;durP1;ratioP1;P1;durP2;ratioP2;P2;SDS_P1;SDS_P2;PMS_P1;PMS_P2;Temp;Humidity;BMP_temperature;BMP_pressure;BME280_temperature;BME280_humidity;BME280_pressure;Samples;Min_cycle;Max_cycle;Signal;HPM_P1;HPM_P2
2021/10/25 00:00:22;;;;;;;18.50;10.57;;;;;;;1.19;100.00;97313.44;5031384;28;20342;-60
2021/10/25 00:02:49;;;;;;;19.15;10.85;;;;;;;1.05;100.00;97318.72;5034289;28;20037;-59
2021/10/25 00:05:14;;;;;;;18.15;10.38;;;;;;;1.10;100.00;97323.25;5028552;28;20096;-60
2021/10/25 00:07:40;;;;;;;17.50;10.07;;;;;;;1.37;100.00;97314.53;5035032;28;20042;-61
2021/10/25 00:10:06;;;;;;;19.73;9.90;;;;;;;1.60;100.00;97314.72;5028204;28;20041;-60
2021/10/25 00:12:32;;;;;;;16.75;10.25;;;;;;;1.83;100.00;97313.81;5034029;28;20041;-61
2021/10/25 00:14:58;;;;;;;21.25;10.30;;;;;;;1.83;100.00;97310.31;5031354;28;20060;-61
2021/10/25 00:17:24;;;;;;;16.13;9.93;;;;;;;1.84;100.00;97306.53;5029506;28;20769;-61
2021/10/25 00:19:50;;;;;;;14.93;9.18;;;;;;;1.93;100.00;97315.56;5035312;28;20052;-64
2021/10/25 00:22:16;;;;;;;16.25;9.13;;;;;;;1.96;100.00;97311.47;5028996;28;20482;-62
2021/10/25 00:24:42;;;;;;;16.63;9.95;;;;;;;1.82;100.00;97312.22;5035652;28;20482;-60
2021/10/25 00:27:07;;;;;;;17.90;9.73;;;;;;;1.86;100.00;97305.13;5039965;28;20079;-60
2021/10/25 00:29:32;;;;;;;16.67;10.88;;;;;;;1.95;100.00;97312.59;5037416;28;20545;-60
2021/10/25 00:31:58;;;;;;;16.73;9.25;;;;;;;2.02;100.00;97319.19;5037242;28;20041;-60
2021/10/25 00:34:23;;;;;;;16.98;9.85;;;;;;;2.14;100.00;97320.63;5037512;28;20057;-62
2021/10/25 00:36:49;;;;;;;18.08;10.00;;;;;;;2.29;100.00;97309.56;5042842;28;20041;-62
2021/10/25 00:39:14;;;;;;;18.52;10.05;;;;;;;2.30;100.00;97311.16;5027909;28;20109;-60
2021/10/25 00:41:40;;;;;;;18.13;10.10;;;;;;;2.37;100.00;97313.47;5034413;28;20037;-60
2021/10/25 00:44:05;;;;;;;22.00;10.45;;;;;;;2.46;100.00;97314.38;5027968;28;20037;-61
2021/10/25 00:46:31;;;;;;;17.25;10.20;;;;;;;2.48;100.00;97301.38;5035705;28;20041;-60
2021/10/25 00:48:57;;;;;;;18.42;9.52;;;;;;;2.09;100.00;97308.03;5036649;28;20481;-61
2021/10/25 00:51:22;;;;;;;24.80;9.90;;;;;;;1.84;100.00;97303.84;5027437;28;20630;-61
2021/10/25 00:53:48;;;;;;;18.13;9.90;;;;;;;1.80;100.00;97297.41;5034137;28;20145;-61
2021/10/25 00:56:14;;;;;;;21.83;10.57;;;;;;;1.94;100.00;97294.75;5028694;28;20108;-61
2021/10/25 00:58:39;;;;;;;28.48;10.80;;;;;;;1.84;100.00;97290.34;5031164;28;20040;-61
2021/10/25 01:01:06;;;;;;;29.92;10.02;;;;;;;1.68;100.00;97284.38;5026313;28;20056;-60
2021/10/25 01:03:32;;;;;;;29.83;11.23;;;;;;;1.72;100.00;97286.16;5034402;28;20048;-61
2021/10/25 01:05:58;;;;;;;38.47;13.07;;;;;;;1.83;100.00;97284.09;5032159;28;20041;-60
2021/10/25 01:08:26;;;;;;;44.53;13.85;;;;;;;1.91;100.00;97280.75;5030534;28;20394;-61
2021/10/25 01:10:53;;;;;;;30.95;11.88;;;;;;;1.84;100.00;97277.63;5018215;28;20048;-61
2021/10/25 01:13:18;;;;;;;33.30;12.23;;;;;;;1.85;100.00;97287.31;5037654;28;20412;-62
2021/10/25 01:15:44;;;;;;;51.00;13.57;;;;;;;1.94;100.00;97283.94;5047237;28;20045;-62
2021/10/25 01:18:10;;;;;;;43.58;12.82;;;;;;;1.88;100.00;97283.22;5038954;28;20052;-61
2021/10/25 01:20:37;;;;;;;31.85;12.88;;;;;;;1.84;100.00;97283.03;5053822;28;20029;-61
2021/10/25 01:23:04;;;;;;;36.63;13.13;;;;;;;1.97;100.00;97288.75;5051454;28;20064;-60
2021/10/25 01:25:30;;;;;;;39.13;13.20;;;;;;;2.14;100.00;97285.50;5070789;28;20044;-63
2021/10/25 01:27:57;;;;;;;48.22;14.27;;;;;;;2.14;100.00;97286.28;5084666;28;20107;-62
2021/10/25 01:30:22;;;;;;;43.33;14.32;;;;;;;2.19;100.00;97286.19;5060978;28;20928;-61
2021/10/25 01:32:49;;;;;;;40.47;14.35;;;;;;;2.37;100.00;97278.31;5027122;28;20052;-59
2021/10/25 01:35:15;;;;;;;39.22;13.70;;;;;;;2.58;100.00;97281.44;5031697;28;20049;-59
2021/10/25 01:37:42;;;;;;;35.10;13.30;;;;;;;2.72;100.00;97270.63;5032687;28;20041;-58
2021/10/25 01:40:09;;;;;;;35.03;13.63;;;;;;;2.73;100.00;97275.72;5025455;28;20065;-59
2021/10/25 01:42:36;;;;;;;37.00;12.70;;;;;;;2.88;100.00;97271.91;5025870;28;20041;-59
2021/10/25 01:45:03;;;;;;;45.42;13.05;;;;;;;2.78;100.00;97270.22;5024864;28;20053;-59
2021/10/25 01:47:28;;;;;;;34.38;12.52;;;;;;;2.71;100.00;97263.63;5028853;28;20049;-58
2021/10/25 01:49:54;;;;;;;34.70;15.05;;;;;;;2.75;100.00;97270.03;5032129;28;20067;-57
2021/10/25 01:52:20;;;;;;;32.85;12.98;;;;;;;2.72;100.00;97270.63;5024832;28;20496;-59
2021/10/25 01:54:46;;;;;;;34.45;12.25;;;;;;;2.78;100.00;97270.22;5031856;28;20486;-59
2021/10/25 01:57:11;;;;;;;34.13;13.68;;;;;;;2.82;100.00;97276.63;5023742;28;20114;-61
2021/10/25 01:59:37;;;;;;;30.08;13.10;;;;;;;2.84;100.00;97273.63;5033357;28;20088;-60
2021/10/25 02:02:03;;;;;;;47.38;13.82;;;;;;;2.80;100.00;97265.31;5029984;28;20038;-60
2021/10/25 02:04:30;;;;;;;31.98;13.07;;;;;;;2.76;100.00;97269.72;5027732;28;20142;-60
2021/10/25 02:06:55;;;;;;;35.10;12.35;;;;;;;2.83;100.00;97272.03;5031252;28;20132;-58
2021/10/25 02:09:21;;;;;;;57.05;15.73;;;;;;;2.85;100.00;97270.63;5025928;28;21004;-60
2021/10/25 02:11:47;;;;;;;43.47;13.30;;;;;;;2.91;100.00;97265.88;5030426;28;20718;-61
2021/10/25 02:14:13;;;;;;;29.77;13.05;;;;;;;2.92;100.00;97256.69;5023828;28;20060;-59
2021/10/25 02:16:39;;;;;;;33.38;13.25;;;;;;;2.95;100.00;97263.38;5032613;28;20399;-60
2021/10/25 02:19:05;;;;;;;30.90;14.82;;;;;;;2.96;100.00;97265.00;5026353;28;20549;-58
2021/10/25 02:21:31;;;;;;;34.20;13.23;;;;;;;3.05;100.00;97260.47;5030608;28;20045;-60
2021/10/25 02:23:57;;;;;;;31.45;12.18;;;;;;;3.09;100.00;97268.78;5032728;28;20033;-57
2021/10/25 02:26:22;;;;;;;48.67;13.30;;;;;;;3.19;100.00;97268.56;5023856;28;20171;-62
2021/10/25 02:28:47;;;;;;;35.38;13.63;;;;;;;3.14;100.00;97264.06;5028304;28;20135;-63
2021/10/25 02:31:13;;;;;;;52.97;14.40;;;;;;;3.12;100.00;97265.47;5038181;28;20493;-61
2021/10/25 02:33:39;;;;;;;85.05;15.52;;;;;;;2.83;100.00;97263.91;5045145;28;20045;-60
2021/10/25 02:36:06;;;;;;;36.03;14.48;;;;;;;2.87;100.00;97249.47;5039514;28;20033;-59
2021/10/25 02:38:33;;;;;;;33.05;13.95;;;;;;;3.08;100.00;97250.94;5047180;28;20041;-58
2021/10/25 02:40:59;;;;;;;37.63;14.77;;;;;;;3.17;100.00;97252.63;5028246;28;20044;-61
2021/10/25 02:43:24;;;;;;;31.67;14.20;;;;;;;3.21;100.00;97250.13;5044594;28;20132;-61
2021/10/25 02:45:50;;;;;;;37.63;14.45;;;;;;;3.24;100.00;97236.75;5053200;28;20065;-57
2021/10/25 02:48:15;;;;;;;43.80;16.05;;;;;;;3.21;100.00;97236.56;5024750;28;20060;-56
2021/10/25 02:50:42;;;;;;;40.38;15.48;;;;;;;3.25;100.00;97227.53;5029156;28;20041;-59
2021/10/25 02:53:09;;;;;;;38.13;14.60;;;;;;;3.31;100.00;97228.19;5025230;28;20041;-62
2021/10/25 02:55:35;;;;;;;80.63;17.63;;;;;;;3.13;100.00;97229.16;5032307;28;20055;-57
2021/10/25 02:58:02;;;;;;;34.80;15.30;;;;;;;3.13;100.00;97219.13;5043878;28;20035;-61
2021/10/25 03:00:27;;;;;;;51.58;15.40;;;;;;;3.14;100.00;97225.38;5026278;28;20079;-59
2021/10/25 03:02:53;;;;;;;33.33;15.73;;;;;;;3.25;100.00;97232.94;5032617;28;20117;-60
2021/10/25 03:05:19;;;;;;;41.80;15.73;;;;;;;3.33;100.00;97233.31;5025528;28;20104;-58
2021/10/25 03:07:44;;;;;;;41.90;15.85;;;;;;;3.40;100.00;97226.38;5035621;28;20114;-59
2021/10/25 03:10:10;;;;;;;42.45;17.15;;;;;;;3.57;100.00;97227.63;5029320;28;20433;-58
2021/10/25 03:12:37;;;;;;;38.25;16.83;;;;;;;3.52;100.00;97235.88;5028196;28;20453;-58
2021/10/25 03:15:04;;;;;;;66.38;17.65;;;;;;;3.49;100.00;97241.88;5032467;28;20040;-60
2021/10/25 03:17:30;;;;;;;41.83;16.20;;;;;;;3.45;100.00;97247.13;5033445;28;20066;-60
2021/10/25 03:19:55;;;;;;;64.90;17.10;;;;;;;3.41;100.00;97251.56;5029969;28;20133;-58
2021/10/25 03:22:21;;;;;;;104.32;18.48;;;;;;;3.32;100.00;97256.09;5025983;28;20037;-58
2021/10/25 03:24:47;;;;;;;41.25;17.33;;;;;;;3.24;100.00;97255.72;5025224;28;20061;-59
2021/10/25 03:27:12;;;;;;;45.60;18.67;;;;;;;3.39;100.00;97251.84;5024195;28;20037;-59
2021/10/25 03:29:38;;;;;;;52.38;17.65;;;;;;;3.53;100.00;97248.28;5029163;28;20069;-58
2021/10/25 03:32:04;;;;;;;47.45;19.08;;;;;;;3.64;100.00;97239.63;5035252;28;20052;-61
2021/10/25 03:34:30;;;;;;;44.58;16.77;;;;;;;3.69;100.00;97244.13;5035187;28;20049;-60
2021/10/25 03:36:56;;;;;;;102.15;18.25;;;;;;;3.49;100.00;97241.88;5033080;28;20041;-60
2021/10/25 03:39:24;;;;;;;39.75;18.15;;;;;;;3.45;100.00;97247.13;5022513;28;20513;-61
2021/10/25 03:41:53;;;;;;;41.05;17.88;;;;;;;3.36;100.00;97235.41;5030482;28;20132;-59
2021/10/25 03:44:24;;;;;;;43.65;18.13;;;;;;;3.35;100.00;97236.50;5015533;28;20033;-59
2021/10/25 03:51:47;;;;;;;49.83;18.20;;;;;;;3.72;100.00;97235.34;5009699;28;20125;-61
2021/10/25 04:13:11;;;;;;;59.55;23.50;;;;;;;3.65;100.00;97240.41;5049178;28;20041;-59
2021/10/25 04:29:13;;;;;;;141.43;28.10;;;;;;;3.40;100.00;97226.38;5045318;28;20039;-59
2021/10/25 04:31:38;;;;;;;68.20;26.77;;;;;;;3.40;100.00;97230.97;5036264;28;20416;-59
2021/10/25 04:34:04;;;;;;;219.50;30.20;;;;;;;3.36;100.00;97238.91;5048058;28;20037;-62
2021/10/25 04:36:30;;;;;;;308.55;32.83;;;;;;;3.28;100.00;97228.84;5053059;28;20745;-61
2021/10/25 04:38:55;;;;;;;110.00;28.67;;;;;;;3.34;100.00;97227.59;5054263;28;20082;-61
2021/10/25 04:41:21;;;;;;;72.47;27.13;;;;;;;3.56;100.00;97226.78;5031842;28;20094;-60
2021/10/25 04:43:46;;;;;;;87.55;28.17;;;;;;;3.70;100.00;97229.44;5056929;28;20079;-61
2021/10/25 04:46:12;;;;;;;70.20;27.40;;;;;;;3.68;100.00;97226.25;5053079;28;20047;-60
2021/10/25 04:48:38;;;;;;;64.40;28.83;;;;;;;3.84;100.00;97221.25;5055113;28;20053;-59
2021/10/25 04:51:04;;;;;;;70.55;28.45;;;;;;;4.02;100.00;97220.25;5045877;28;20070;-60
2021/10/25 04:53:30;;;;;;;95.10;27.88;;;;;;;3.97;100.00;97225.00;5056387;28;20037;-59
2021/10/25 04:55:56;;;;;;;124.20;26.48;;;;;;;3.77;100.00;97224.41;5052771;28;20068;-60
2021/10/25 04:58:21;;;;;;;277.88;34.17;;;;;;;3.51;100.00;97218.00;5045919;28;22216;-59
2021/10/25 05:00:47;;;;;;;89.82;26.23;;;;;;;3.52;100.00;97216.91;5056445;28;20309;-60
2021/10/25 05:03:12;;;;;;;94.78;28.08;;;;;;;3.51;100.00;97223.41;5054263;28;20045;-59
2021/10/25 05:05:37;;;;;;;374.80;35.30;;;;;;;3.47;100.00;97211.59;5057894;28;20059;-61
2021/10/25 05:08:03;;;;;;;311.48;34.75;;;;;;;3.46;100.00;97224.34;5051412;28;20036;-59
2021/10/25 05:10:28;;;;;;;323.13;38.97;;;;;;;3.45;100.00;97218.13;5033133;28;20132;-59
2021/10/25 05:12:54;;;;;;;274.73;35.00;;;;;;;3.47;100.00;97211.59;5045324;28;20041;-59
2021/10/25 05:15:19;;;;;;;146.50;32.90;;;;;;;3.51;100.00;97220.72;5047733;28;20499;-60
2021/10/25 05:17:45;;;;;;;89.03;30.63;;;;;;;3.62;100.00;97227.50;5057354;28;20041;-61
2021/10/25 05:20:10;;;;;;;114.15;29.95;;;;;;;3.70;100.00;97226.75;5057353;28;20503;-63
2021/10/25 05:22:36;;;;;;;88.30;29.15;;;;;;;3.74;100.00;97221.50;5056789;28;20094;-64
2021/10/25 05:25:02;;;;;;;82.05;28.65;;;;;;;3.83;100.00;97228.59;5066624;28;20044;-60
2021/10/25 05:27:27;;;;;;;125.47;30.77;;;;;;;4.06;100.00;97239.38;5048191;28;20052;-60
2021/10/25 05:29:53;;;;;;;176.05;32.35;;;;;;;3.95;100.00;97232.63;5058357;28;20045;-60
2021/10/25 05:32:19;;;;;;;83.85;30.08;;;;;;;3.98;100.00;97227.41;5061930;28;20045;-60
2021/10/25 05:34:44;;;;;;;80.10;28.05;;;;;;;4.16;100.00;97216.63;5059762;28;20052;-60
2021/10/25 05:37:10;;;;;;;73.28;26.48;;;;;;;4.27;100.00;97217.97;5029882;28;20037;-58
2021/10/25 05:39:36;;;;;;;75.07;26.50;;;;;;;4.26;100.00;97221.00;5051248;28;20110;-60
2021/10/25 05:42:05;;;;;;;67.30;24.80;;;;;;;4.29;100.00;97221.16;5050888;28;20033;-61
2021/10/25 05:44:31;;;;;;;67.22;24.25;;;;;;;4.29;100.00;97221.16;5051543;28;20515;-61
2021/10/25 05:46:56;;;;;;;74.80;25.33;;;;;;;4.34;100.00;97212.91;5052819;28;20036;-60
2021/10/25 05:49:22;;;;;;;67.07;23.80;;;;;;;4.38;100.00;97218.50;5041839;28;20365;-59
2021/10/25 05:51:47;;;;;;;68.78;24.40;;;;;;;4.43;100.00;97218.34;5033900;28;20033;-60
2021/10/25 05:54:13;;;;;;;82.13;23.23;;;;;;;4.44;100.00;97222.66;5047197;28;20037;-59
2021/10/25 05:56:38;;;;;;;59.42;21.75;;;;;;;4.33;100.00;97226.75;5050968;28;20037;-58
2021/10/25 05:59:05;;;;;;;55.60;22.38;;;;;;;4.36;100.00;97220.72;5048787;28;20162;-60
2021/10/25 06:01:40;;;;;;;59.78;23.73;;;;;;;4.44;100.00;97224.56;5049904;28;20513;-59
2021/10/25 06:04:10;;;;;;;61.08;25.13;;;;;;;4.52;100.00;97221.91;5035709;28;20040;-60
2021/10/25 06:06:39;;;;;;;86.50;20.98;;;;;;;4.45;100.00;97226.97;5050045;28;20446;-60
2021/10/25 06:09:05;;;;;;;43.53;19.02;;;;;;;4.40;100.00;97222.47;5046404;28;20036;-60
2021/10/25 06:11:33;;;;;;;62.60;22.13;;;;;;;4.35;100.00;97225.31;5050739;28;20785;-58
2021/10/25 06:14:04;;;;;;;46.55;20.33;;;;;;;4.31;100.00;97237.13;5052815;28;20071;-59
2021/10/25 06:16:41;;;;;;;48.95;21.17;;;;;;;4.42;100.00;97243.88;5026768;28;20044;-59
2021/10/25 06:19:10;;;;;;;47.15;21.38;;;;;;;4.46;100.00;97244.84;5042907;28;20064;-59
2021/10/25 06:21:35;;;;;;;45.80;20.30;;;;;;;4.45;100.00;97240.53;5051203;28;20137;-60
2021/10/25 06:24:01;;;;;;;47.40;20.15;;;;;;;4.49;100.00;97249.63;5049368;28;20292;-62
2021/10/25 06:26:27;;;;;;;45.00;18.75;;;;;;;4.58;100.00;97239.63;5045777;28;20450;-61
2021/10/25 06:28:53;;;;;;;42.22;19.92;;;;;;;4.62;100.00;97234.34;5062051;28;20060;-60
2021/10/25 06:31:20;;;;;;;42.15;19.77;;;;;;;4.64;100.00;97244.91;5054843;28;20040;-60
2021/10/25 06:33:46;;;;;;;58.28;28.67;;;;;;;4.35;100.00;97252.44;5059960;28;20090;-58
2021/10/25 06:36:12;;;;;;;43.08;20.13;;;;;;;4.22;100.00;97250.63;5045959;28;20041;-58
2021/10/25 06:38:53;;;;;;;41.97;19.98;;;;;;;4.40;100.00;97251.53;5047135;28;20076;-59
2021/10/25 06:41:20;;;;;;;44.35;19.67;;;;;;;4.48;100.00;97245.31;5043240;28;20067;-62
2021/10/25 06:43:46;;;;;;;44.72;20.50;;;;;;;4.66;100.00;97238.03;5050970;28;20535;-60
2021/10/25 06:46:13;;;;;;;43.35;20.70;;;;;;;4.79;100.00;97228.19;5033054;28;20033;-62
2021/10/25 06:48:39;;;;;;;49.90;21.23;;;;;;;4.78;100.00;97229.31;5039255;28;20060;-58
2021/10/25 06:51:05;;;;;;;43.35;19.92;;;;;;;4.76;100.00;97229.59;5049310;28;20041;-61
2021/10/25 06:53:30;;;;;;;92.68;23.65;;;;;;;4.48;100.00;97244.53;5030339;28;20051;-59
2021/10/25 06:55:56;;;;;;;46.60;20.17;;;;;;;4.49;100.00;97256.97;5052395;28;20053;-59
2021/10/25 06:58:22;;;;;;;44.92;22.45;;;;;;;4.64;100.00;97251.13;5042420;28;20567;-61
2021/10/25 07:00:48;;;;;;;51.65;22.15;;;;;;;4.60;100.00;97236.59;5053598;28;20036;-58
2021/10/25 07:03:14;;;;;;;51.97;22.10;;;;;;;4.78;100.00;97226.59;5056686;28;20037;-61
2021/10/25 07:05:39;;;;;;;49.58;22.60;;;;;;;4.94;100.00;97237.81;5059004;28;20040;-58
2021/10/25 07:08:06;;;;;;;47.90;21.35;;;;;;;5.02;100.00;97253.28;5045778;28;20079;-62
2021/10/25 07:10:33;;;;;;;42.40;19.50;;;;;;;5.06;100.00;97272.47;5045184;28;20037;-59
2021/10/25 07:12:59;;;;;;;42.90;20.98;;;;;;;5.02;100.00;97264.16;5049127;28;20040;-59
2021/10/25 07:15:27;;;;;;;47.70;20.60;;;;;;;5.06;100.00;97267.03;5043939;28;20053;-59
2021/10/25 07:18:10;;;;;;;43.30;20.65;;;;;;;5.15;100.00;97265.94;5048261;28;20569;-59
2021/10/25 08:04:26;;;;;;;38.75;18.88;;;;;;;6.33;100.00;97272.28;5030035;23;20057;-58
2021/10/25 08:06:50;;;;;;;38.60;18.83;;;;;;;6.35;100.00;97264.59;4999232;28;20061;-58
2021/10/25 08:11:58;;;;;;;39.97;19.08;;;;;;;6.53;100.00;97269.97;4998120;28;20041;-58
2021/10/25 08:14:34;;;;;;;36.30;19.52;;;;;;;6.48;100.00;97270.94;4982589;28;20531;-59
2021/10/25 08:17:01;;;;;;;42.95;19.85;;;;;;;6.43;100.00;97276.59;4987222;28;20519;-57
2021/10/25 08:19:27;;;;;;;40.70;19.73;;;;;;;6.38;100.00;97280.28;4983003;28;20053;-59
2021/10/25 08:21:59;;;;;;;40.38;19.95;;;;;;;6.40;100.00;97283.47;4990953;28;20054;-55
2021/10/25 08:24:31;;;;;;;39.05;18.85;;;;;;;6.47;100.00;97280.25;4974893;28;20912;-61
2021/10/25 08:26:57;;;;;;;37.30;19.92;;;;;;;6.54;100.00;97279.75;4993082;28;20458;-60
2021/10/25 08:29:23;;;;;;;36.28;19.33;;;;;;;6.63;100.00;97275.06;4984787;28;20806;-60
2021/10/25 08:31:59;;;;;;;37.20;19.05;;;;;;;6.57;100.00;97274.47;4990382;28;20459;-59
2021/10/25 08:39:47;;;;;;;36.92;18.05;;;;;;;6.95;100.00;97273.66;4988044;28;20137;-57
2021/10/25 08:42:14;;;;;;;39.30;19.30;;;;;;;7.02;100.00;97270.38;4986014;28;20026;-57
2021/10/25 08:44:40;;;;;;;45.47;19.98;;;;;;;6.54;100.00;97264.22;4999662;28;20058;-56
2021/10/25 08:47:07;;;;;;;37.33;19.98;;;;;;;6.89;100.00;97251.22;4985012;28;20088;-60
2021/10/25 08:49:33;;;;;;;37.70;18.52;;;;;;;7.06;100.00;97249.56;4985352;28;20101;-58
2021/10/25 08:52:00;;;;;;;35.92;18.48;;;;;;;7.43;100.00;97253.28;4986633;28;20035;-58
2021/10/25 08:54:27;;;;;;;56.85;18.38;;;;;;;7.40;100.00;97251.25;4982829;28;20427;-60
2021/10/25 08:56:53;;;;;;;49.45;17.80;;;;;;;7.20;100.00;97247.38;4985531;28;20073;-58
2021/10/25 08:59:20;;;;;;;47.30;19.60;;;;;;;6.78;100.00;97258.19;4978913;28;20046;-59
2021/10/25 09:01:46;;;;;;;51.83;20.48;;;;;;;6.56;100.00;97261.97;4971077;28;20051;-59
2021/10/25 09:04:14;;;;;;;41.53;19.75;;;;;;;6.84;100.00;97254.16;4975117;28;20061;-59
2021/10/25 09:06:54;;;;;;;48.13;21.10;;;;;;;6.46;100.00;97249.53;4984987;28;20062;-58
2021/10/25 09:09:22;;;;;;;49.55;22.58;;;;;;;6.47;100.00;97253.03;4971032;28;20034;-61
2021/10/25 09:12:06;;;;;;;44.85;21.25;;;;;;;6.45;100.00;97239.75;5000251;28;20046;-59
2021/10/25 09:14:33;;;;;;;39.88;19.67;;;;;;;6.86;100.00;97245.63;4970827;28;20047;-60
2021/10/25 09:17:01;;;;;;;41.05;19.55;;;;;;;7.32;100.00;97235.72;4973761;28;20070;-59
2021/10/25 09:19:37;;;;;;;33.00;17.60;;;;;;;7.82;100.00;97239.50;4960327;28;20058;-60
2021/10/25 09:22:15;;;;;;;39.10;19.52;;;;;;;8.23;100.00;97238.59;4964011;28;20122;-61
2021/10/25 09:24:52;;;;;;;35.58;18.73;;;;;;;8.49;100.00;97242.19;4985094;28;20034;-60
2021/10/25 09:27:27;;;;;;;41.55;18.98;;;;;;;8.31;100.00;97234.16;4970574;28;20038;-59
2021/10/25 09:29:57;;;;;;;40.67;19.25;;;;;;;7.58;100.00;97234.72;4968177;28;20109;-56
2021/10/25 09:32:31;;;;;;;43.75;20.15;;;;;;;7.43;100.00;97245.09;4960039;28;20545;-61
2021/10/25 09:35:03;;;;;;;47.47;21.10;;;;;;;7.95;100.00;97251.25;4963411;28;20912;-58
2021/10/25 09:37:36;;;;;;;39.28;21.23;;;;;;;7.38;100.00;97241.78;4983527;28;20049;-58
2021/10/25 09:40:14;;;;;;;37.03;18.33;;;;;;;7.60;100.00;97238.72;5003877;28;20046;-61
2021/10/25 09:45:41;;;;;;;43.20;21.50;;;;;;;7.82;100.00;97243.00;4983490;28;20417;-60
2021/10/25 09:50:56;;;;;;;36.15;19.50;;;;;;;8.29;100.00;97236.44;4981710;28;20495;-60
2021/10/25 09:53:29;;;;;;;34.58;18.10;;;;;;;8.33;100.00;97240.09;4980599;28;20220;-59
2021/10/25 09:55:55;;;;;;;36.58;19.90;;;;;;;8.22;100.00;97237.00;4984023;28;20042;-60
2021/10/25 09:58:26;;;;;;;39.80;21.55;;;;;;;7.25;100.00;97238.97;4980677;28;20050;-57
2021/10/25 10:00:52;;;;;;;41.13;21.52;;;;;;;7.36;100.00;97231.22;4996347;28;20455;-59
2021/10/25 10:03:18;;;;;;;46.03;22.85;;;;;;;6.80;100.00;97233.34;4997235;28;20045;-56
2021/10/25 10:05:43;;;;;;;42.47;21.27;;;;;;;7.21;100.00;97232.59;5004146;28;20160;-60
2021/10/25 10:08:12;;;;;;;41.17;19.92;;;;;;;7.79;100.00;97231.97;4998221;28;20092;-58
2021/10/25 10:10:43;;;;;;;39.15;20.98;;;;;;;7.89;100.00;97231.56;5003514;28;20050;-58
2021/10/25 10:13:12;;;;;;;45.42;21.95;;;;;;;6.87;100.00;97222.75;4998418;28;20058;-59
2021/10/25 10:15:40;;;;;;;48.90;23.73;;;;;;;6.77;100.00;97221.19;4985443;28;20070;-55
2021/10/25 10:18:18;;;;;;;52.25;25.73;;;;;;;6.68;100.00;97232.13;4981083;28;20043;-58
2021/10/25 10:20:47;;;;;;;53.28;25.25;;;;;;;6.77;100.00;97231.28;4993037;28;20038;-56
2021/10/25 10:23:17;;;;;;;54.53;24.87;;;;;;;7.01;100.00;97226.00;4955210;28;20051;-59
2021/10/25 10:26:03;;;;;;;54.10;24.87;;;;;;;7.63;100.00;97227.16;4964245;28;20053;-58
2021/10/25 10:28:35;;;;;;;46.22;21.73;;;;;;;8.00;100.00;97218.31;4961987;28;20039;-58
2021/10/25 10:31:09;;;;;;;39.95;20.83;;;;;;;8.39;100.00;97222.38;4961419;28;20062;-59
2021/10/25 10:33:44;;;;;;;42.20;20.13;;;;;;;8.60;100.00;97222.28;4974306;28;20046;-59
2021/10/25 10:36:12;;;;;;;40.83;21.20;;;;;;;8.10;100.00;97212.41;4977678;28;20069;-59
2021/10/25 10:39:05;;;;;;;40.72;21.48;;;;;;;8.76;100.00;97216.94;4984937;28;20061;-57
2021/10/25 10:41:51;;;;;;;44.90;21.58;;;;;;;9.20;100.00;97219.06;4969761;28;20038;-59
2021/10/25 10:44:19;;;;;;;45.92;21.38;;;;;;;8.32;100.00;97207.66;4978695;28;20045;-56
2021/10/25 10:46:45;;;;;;;41.90;21.50;;;;;;;8.35;100.00;97209.72;5015991;28;20447;-58
2021/10/25 10:49:32;;;;;;;40.25;22.65;;;;;;;8.73;100.00;97206.72;4972185;28;20132;-58
2021/10/25 10:52:07;;;;;;;41.53;21.63;;;;;;;9.18;100.00;97211.22;4977372;28;20046;-58
2021/10/25 10:55:10;;;;;;;36.25;20.77;;;;;;;9.25;100.00;97212.56;4977620;28;20049;-57
2021/10/25 11:00:26;;;;;;;37.40;21.17;;;;;;;9.28;100.00;97211.88;4992604;28;20064;-59
2021/10/25 11:03:01;;;;;;;38.53;19.92;;;;;;;9.21;100.00;97203.47;5003529;28;20922;-58
2021/10/25 11:05:29;;;;;;;38.22;19.98;;;;;;;8.98;100.00;97199.31;4999412;28;20387;-58
2021/10/25 11:08:09;;;;;;;52.92;29.17;;;;;;;8.94;100.00;97194.84;4995689;28;20054;-60
2021/10/25 11:10:37;;;;;;;42.67;23.63;;;;;;;8.96;100.00;97204.28;4992764;28;20044;-58
2021/10/25 11:13:21;;;;;;;36.67;20.13;;;;;;;9.24;100.00;97198.09;4998219;28;20068;-61
2021/10/25 11:16:14;;;;;;;39.25;22.88;;;;;;;9.31;100.00;97200.22;5003019;28;20046;-59
2021/10/25 11:18:54;;;;;;;34.47;18.95;;;;;;;9.42;98.91;97197.81;5001890;28;20045;-59
2021/10/25 11:21:28;;;;;;;36.17;21.05;;;;;;;9.43;98.96;97192.00;4985342;28;20466;-58
2021/10/25 11:23:58;;;;;;;36.38;19.95;;;;;;;9.49;98.93;97176.94;4987113;28;20053;-60
2021/10/25 11:26:40;;;;;;;32.17;18.90;;;;;;;9.49;98.53;97176.94;5001374;28;20054;-60
2021/10/25 11:29:16;;;;;;;36.25;18.88;;;;;;;9.50;98.44;97181.25;4989479;28;20035;-60
2021/10/25 11:31:51;;;;;;;36.50;20.63;;;;;;;9.67;97.67;97174.72;4978708;28;20133;-60
2021/10/25 11:34:26;;;;;;;35.50;19.83;;;;;;;9.68;97.44;97170.81;4967800;28;20045;-58
2021/10/25 11:36:53;;;;;;;33.53;19.35;;;;;;;9.54;97.92;97171.25;4977123;28;20042;-60
2021/10/25 11:40:00;;;;;;;38.35;22.10;;;;;;;9.84;95.43;97173.59;4995591;28;20093;-59
2021/10/25 11:42:28;;;;;;;50.05;23.13;;;;;;;10.08;94.72;97180.06;5006445;28;20638;-60
2021/10/25 11:45:00;;;;;;;37.72;20.60;;;;;;;10.36;93.05;97166.34;5006593;28;20042;-58
2021/10/25 11:47:27;;;;;;;38.65;21.88;;;;;;;10.55;92.11;97168.34;4984689;28;20093;-61
2021/10/25 11:49:53;;;;;;;42.35;23.27;;;;;;;10.83;89.95;97167.44;4998152;28;20043;-60
2021/10/25 11:52:19;;;;;;;34.88;18.48;;;;;;;10.80;89.33;97157.97;4979661;28;20478;-59
2021/10/25 11:54:50;;;;;;;35.17;19.65;;;;;;;10.31;91.65;97153.72;4992578;28;20050;-60
2021/10/25 11:57:21;;;;;;;33.17;18.50;;;;;;;10.62;92.16;97145.81;4987706;28;20049;-61
2021/10/25 12:00:02;;;;;;;29.67;18.27;;;;;;;11.02;89.43;97128.31;4983417;28;20377;-61
2021/10/25 12:02:29;;;;;;;28.83;17.60;;;;;;;11.09;89.23;97121.06;4985005;28;20046;-59
2021/10/25 12:04:54;;;;;;;30.52;17.90;;;;;;;12.20;84.99;97132.56;4987966;28;20070;-59
2021/10/25 12:07:20;;;;;;;29.83;17.20;;;;;;;12.77;78.96;97127.19;4986178;28;20042;-60
2021/10/25 12:09:46;;;;;;;28.83;16.52;;;;;;;12.84;77.82;97121.78;4992808;28;20094;-61
2021/10/25 12:12:16;;;;;;;26.05;15.85;;;;;;;13.12;76.40;97110.34;4992093;28;20038;-61
2021/10/25 12:14:44;;;;;;;27.70;16.98;;;;;;;13.23;74.93;97110.50;4991836;28;20069;-60
2021/10/25 12:17:15;;;;;;;28.98;17.90;;;;;;;12.59;76.57;97111.22;4984517;28;20368;-60
2021/10/25 12:19:45;;;;;;;26.83;16.85;;;;;;;12.81;76.99;97114.25;4985009;28;20034;-59
2021/10/25 12:22:17;;;;;;;27.35;16.90;;;;;;;12.71;76.67;97115.72;4983257;28;20495;-60
2021/10/25 12:24:49;;;;;;;27.00;17.40;;;;;;;12.86;75.47;97111.19;4987747;28;20039;-59
2021/10/25 12:27:22;;;;;;;28.90;17.08;;;;;;;12.51;77.48;97111.47;4994030;28;20042;-58
2021/10/25 12:30:04;;;;;;;29.65;16.67;;;;;;;11.95;79.93;97104.66;4996772;28;20141;-58
2021/10/25 12:32:30;;;;;;;29.63;17.30;;;;;;;11.97;80.08;97105.09;5010184;28;20102;-60
2021/10/25 12:34:58;;;;;;;33.75;17.98;;;;;;;11.91;80.10;97104.59;5009855;28;20417;-58
2021/10/25 12:37:29;;;;;;;30.67;18.33;;;;;;;11.93;81.29;97098.75;5003875;28;20042;-59
2021/10/25 12:39:56;;;;;;;30.60;18.20;;;;;;;11.78;82.82;97100.44;5010713;28;20038;-58
2021/10/25 12:42:24;;;;;;;30.00;17.15;;;;;;;11.60;83.54;97095.41;5004417;28;21709;-61
2021/10/25 12:44:53;;;;;;;32.72;17.77;;;;;;;11.22;85.33;97091.53;5008174;28;20044;-60
2021/10/25 12:47:22;;;;;;;27.70;16.83;;;;;;;11.32;85.04;97103.09;5001241;28;20042;-59
2021/10/25 12:49:49;;;;;;;30.73;17.67;;;;;;;11.20;86.33;97104.81;5008938;28;20280;-60
2021/10/25 12:52:16;;;;;;;31.50;17.85;;;;;;;11.09;87.60;97099.13;4998192;28;20045;-58
2021/10/25 12:54:43;;;;;;;31.17;17.50;;;;;;;11.13;88.31;97092.91;5011683;28;20049;-60
2021/10/25 12:57:20;;;;;;;28.45;16.67;;;;;;;11.31;86.83;97093.25;5013776;28;20046;-60
2021/10/25 13:00:12;;;;;;;28.80;16.70;;;;;;;11.32;87.67;97087.41;5002463;28;20176;-56